Nearby METAR Reports

 

LERS - Reus, Tarragona, España
Actualización: 27/11/2020 17:52
Thunderstorm rain, Muy nuboso
Thunderstorm rain, Muy nuboso
 Viento del NE
Viento: NE 24 km/h
Temperatura: 15°C
Rocío: 11°C
Humedad: 77%
Barómetro: 1009 hPa
Resumen: Thunderstorm Rain
Clouds: Muy nuboso
Visibility: 7 km
Cloud details: Few Clouds 610 m
Few Clouds 1067 m
Muy nuboso 1219 m
2020/11/27 16:52 LERS 271652Z 05013KT 7000 TSRA FEW020 FEW035CB BKN040 15/11 Q1009
LEMD - Barajas, Madrid, España
Actualización: 27/11/2020 17:30
Probáblemente lluvioso, Muy nuboso
Probáblemente lluvioso, Muy nuboso
 Viento del N
Viento: N 9 km/h
Temperatura: 8°C
Wind Chill: 6°C
Rocío: 8°C
Humedad: 100%
Barómetro: 1008 hPa
Resumen: Probáblemente lluvioso
Clouds: Muy nuboso
Visibility: 10 km
Cloud details: Parcialmente nuboso 1219 m
Muy nuboso 1829 m
2020/11/27 16:30 LEMD 271630Z 36005KT 340V060 9999 RA SCT040 BKN060 08/08 Q1008 R88/29//95 NOSIG
LEVC - Manises, Valencia, España
Actualización: 27/11/2020 17:30
Rain showers, Muy nuboso
Rain showers, Muy nuboso
 Viento del NNE
Viento: NNE 7 km/h
Temperatura: 14°C
Rocío: 12°C
Humedad: 88%
Barómetro: 1006 hPa
Resumen: Rain Showers
Clouds: Muy nuboso
Visibility: 6 km
Cloud details: Parcialmente nuboso 610 m
Few Clouds 671 m
Muy nuboso 1219 m
2020/11/27 16:30 LEVC 271630Z 02004KT 320V060 6000 SHRA SCT020 FEW022CB BKN040 14/12 Q1006 RETS TEMPO 2000 TS
 
LEBL - El Prat, Barcelona, España
Actualización: 27/11/2020 17:30
Few Clouds
Few Clouds
 Viento del ENE
Viento: ENE 43 km/h
Temperatura: 16°C
Rocío: 14°C
Humedad: 88%
Barómetro: 1010 hPa
Clouds: Few Clouds
Visibility: 10 km
Cloud details: Few Clouds 366 m
Parcialmente nuboso 457 m
Few Clouds 610 m
2020/11/27 16:30 LEBL 271630Z 06023KT 9999 FEW012 SCT015 FEW020TCU 16/14 Q1010 TEMPO 4000 SHRA FEW015CB
LEAL - Altet, Alicante, España
Actualización: 27/11/2020 17:30
Parcialmente nuboso
Parcialmente nuboso
 Viento del N
Viento: N 7 km/h
Temperatura: 14°C
Rocío: 12°C
Humedad: 88%
Barómetro: 1004 hPa
Clouds: Parcialmente nuboso
Visibility: 10 km
Cloud details: Few Clouds 427 m
Parcialmente nuboso 914 m
2020/11/27 16:30 LEAL 271630Z 36004KT 340V040 9999 FEW014 SCT030 14/12 Q1004 NOSIG
LEZG - Zaragoza, Zaragoza, España
Actualización: 27/11/2020 17:30
Parcialmente nuboso
Parcialmente nuboso
 Viento del E
Viento: E 6 km/h
Temperatura: 13°C
Rocío: 11°C
Humedad: 88%
Barómetro: 1009 hPa
Clouds: Parcialmente nuboso
Visibility: 10 km
Cloud details: Few Clouds 914 m
Parcialmente nuboso 2438 m
2020/11/27 16:30 LEZG 271630Z 09003KT 070V130 9999 FEW030 SCT080 13/11 Q1009
 
LFPG - Paris, Francia, Francia
Actualización: 27/11/2020 17:30
Parcialmente nuboso
Parcialmente nuboso
 Viento del NE
Viento: NE 7 km/h
Temperatura: 7°C
Wind Chill: 6°C
Rocío: 6°C
Humedad: 93%
Barómetro: 1016 hPa
Clouds: Parcialmente nuboso
Visibility: 7 km
2020/11/27 16:30 LFPG 271630Z 05004KT 7000 NSC 07/06 Q1016 NOSIG
LPPT - Lisboa, Portugal
Actualización: 27/11/2020 17:30
Parcialmente nuboso
Parcialmente nuboso
 Viento del NNO
Viento: NNO 15 km/h
Temperatura: 15°C
Rocío: 10°C
Humedad: 72%
Barómetro: 1007 hPa
Clouds: Parcialmente nuboso
Visibility: 10 km
Cloud details: Few Clouds 549 m
Parcialmente nuboso 1036 m
2020/11/27 16:30 LPPT 271630Z 33008KT 9999 FEW018 SCT034 15/10 Q1007
EDDT - Berlin, Alemania
Actualización: 09/11/2020 07:50
NOT Current
Mist, Cubierto
Mist, Cubierto
 Viento del E
Viento: E 11 km/h
Temperatura: 6°C
Wind Chill: 4°C
Rocío: 5°C
Humedad: 93%
Barómetro: 1027 hPa
Resumen: Mist
Clouds: Cubierto
Visibility: 3 km
Cloud details: Cubierto 91 m
2020/11/09 06:50 EDDT 090650Z 09006KT 050V120 3000 BR OVC003 06/05 Q1027
 
KHAF - Half Moon Bay, California, USA
Actualización: 27/11/2020 17:55
Despejado
Despejado
 Viento del calm
Viento: Calma
Temperatura: 13°C
Rocío: -1°C
Humedad: 38%
Barómetro: 1023.7 hPa
Clouds: Despejado
Visibility: 16 km
2020/11/27 16:55 KHAF 271655Z AUTO 00000KT 10SM CLR 13/M01 A3023 RMK AO2
KHWD - Hayward, California, USA
Actualización: 27/11/2020 17:54
Despejado
Despejado
 Viento del SSE
Viento: SSE 7 km/h
Temperatura: 11°C
Rocío: -3°C
Humedad: 38%
Barómetro: 1024.4 hPa
Clouds: Despejado
Visibility: 16 km
2020/11/27 16:54 KHWD 271654Z 15004KT 10SM CLR 11/M03 A3025 RMK AO2 SLP253 T01061028
KLVK - Livermore, California,
Actualización: 27/11/2020 17:53
Despejado
Despejado
 Viento del calm
Viento: Calma
Temperatura: 9°C
Rocío: -4°C
Humedad: 40%
Barómetro: 1024.4 hPa
Clouds: Despejado
Visibility: 16 km
2020/11/27 16:53 KLVK 271653Z 00000KT 10SM CLR 09/M04 A3025 RMK AO2 SLP241 T00891039